sensor_id;sensor_type;location;lat;lon;timestamp;P1;durP1;ratioP1;P2;durP2;ratioP2
25083;SDS011;13075;55.682;37.564;2022-11-20T00:01:08;16.48;;;10.40;;
25083;SDS011;13075;55.682;37.564;2022-11-20T00:03:34;17.40;;;11.25;;
25083;SDS011;13075;55.682;37.564;2022-11-20T00:06:00;19.58;;;10.27;;
25083;SDS011;13075;55.682;37.564;2022-11-20T00:08:36;19.38;;;10.90;;
25083;SDS011;13075;55.682;37.564;2022-11-20T00:11:05;14.73;;;9.95;;
25083;SDS011;13075;55.682;37.564;2022-11-20T00:13:45;17.92;;;9.90;;
25083;SDS011;13075;55.682;37.564;2022-11-20T00:16:13;21.20;;;12.55;;
25083;SDS011;13075;55.682;37.564;2022-11-20T00:18:40;24.55;;;11.75;;
25083;SDS011;13075;55.682;37.564;2022-11-20T00:21:09;21.30;;;12.02;;
25083;SDS011;13075;55.682;37.564;2022-11-20T00:23:37;19.40;;;11.10;;
25083;SDS011;13075;55.682;37.564;2022-11-20T00:26:03;19.38;;;12.15;;
25083;SDS011;13075;55.682;37.564;2022-11-20T00:28:34;22.10;;;11.73;;
25083;SDS011;13075;55.682;37.564;2022-11-20T00:31:03;24.98;;;12.88;;
25083;SDS011;13075;55.682;37.564;2022-11-20T00:33:31;25.38;;;12.85;;
25083;SDS011;13075;55.682;37.564;2022-11-20T00:36:00;22.45;;;12.55;;
25083;SDS011;13075;55.682;37.564;2022-11-20T00:38:27;23.95;;;13.50;;
25083;SDS011;13075;55.682;37.564;2022-11-20T00:40:59;27.05;;;15.15;;
25083;SDS011;13075;55.682;37.564;2022-11-20T00:43:27;26.70;;;14.70;;
25083;SDS011;13075;55.682;37.564;2022-11-20T00:45:59;26.17;;;13.85;;
25083;SDS011;13075;55.682;37.564;2022-11-20T00:48:29;28.27;;;14.77;;
25083;SDS011;13075;55.682;37.564;2022-11-20T00:50:55;26.48;;;14.63;;
25083;SDS011;13075;55.682;37.564;2022-11-20T00:53:22;29.77;;;15.27;;
25083;SDS011;13075;55.682;37.564;2022-11-20T00:58:23;23.58;;;13.82;;
25083;SDS011;13075;55.682;37.564;2022-11-20T01:03:42;22.30;;;13.98;;
25083;SDS011;13075;55.682;37.564;2022-11-20T01:06:14;20.90;;;13.48;;
25083;SDS011;13075;55.682;37.564;2022-11-20T01:08:42;25.90;;;13.73;;
25083;SDS011;13075;55.682;37.564;2022-11-20T01:11:10;26.38;;;12.80;;
25083;SDS011;13075;55.682;37.564;2022-11-20T01:13:37;22.83;;;12.07;;
25083;SDS011;13075;55.682;37.564;2022-11-20T01:16:11;18.90;;;11.13;;
25083;SDS011;13075;55.682;37.564;2022-11-20T01:18:42;21.05;;;12.73;;
25083;SDS011;13075;55.682;37.564;2022-11-20T01:21:10;20.52;;;11.85;;
25083;SDS011;13075;55.682;37.564;2022-11-20T01:23:38;17.83;;;10.82;;
25083;SDS011;13075;55.682;37.564;2022-11-20T01:26:06;22.52;;;10.80;;
25083;SDS011;13075;55.682;37.564;2022-11-20T01:28:33;19.50;;;10.93;;
25083;SDS011;13075;55.682;37.564;2022-11-20T01:30:59;16.30;;;10.52;;
25083;SDS011;13075;55.682;37.564;2022-11-20T01:33:26;20.40;;;12.48;;
25083;SDS011;13075;55.682;37.564;2022-11-20T01:35:52;20.50;;;11.13;;
25083;SDS011;13075;55.682;37.564;2022-11-20T01:38:18;17.27;;;10.40;;
25083;SDS011;13075;55.682;37.564;2022-11-20T01:40:45;22.92;;;12.30;;
25083;SDS011;13075;55.682;37.564;2022-11-20T01:48:19;24.52;;;11.70;;
25083;SDS011;13075;55.682;37.564;2022-11-20T01:50:48;18.67;;;10.77;;
25083;SDS011;13075;55.682;37.564;2022-11-20T01:53:15;18.27;;;11.10;;
25083;SDS011;13075;55.682;37.564;2022-11-20T01:55:51;18.05;;;10.32;;
25083;SDS011;13075;55.682;37.564;2022-11-20T01:58:21;17.92;;;10.43;;
25083;SDS011;13075;55.682;37.564;2022-11-20T02:00:50;23.40;;;11.57;;
25083;SDS011;13075;55.682;37.564;2022-11-20T02:03:17;24.15;;;10.50;;
25083;SDS011;13075;55.682;37.564;2022-11-20T02:05:45;22.10;;;11.60;;
25083;SDS011;13075;55.682;37.564;2022-11-20T02:08:15;16.20;;;11.27;;
25083;SDS011;13075;55.682;37.564;2022-11-20T02:10:42;18.02;;;10.70;;
25083;SDS011;13075;55.682;37.564;2022-11-20T02:13:08;15.75;;;10.68;;
25083;SDS011;13075;55.682;37.564;2022-11-20T02:15:52;19.30;;;9.70;;
25083;SDS011;13075;55.682;37.564;2022-11-20T02:18:19;14.38;;;9.00;;
25083;SDS011;13075;55.682;37.564;2022-11-20T02:20:47;15.70;;;9.98;;
25083;SDS011;13075;55.682;37.564;2022-11-20T02:26:16;16.95;;;9.18;;
25083;SDS011;13075;55.682;37.564;2022-11-20T02:28:43;15.18;;;9.82;;
25083;SDS011;13075;55.682;37.564;2022-11-20T02:31:09;22.90;;;11.63;;
25083;SDS011;13075;55.682;37.564;2022-11-20T02:33:34;17.20;;;10.25;;
25083;SDS011;13075;55.682;37.564;2022-11-20T02:36:00;21.42;;;10.15;;
25083;SDS011;13075;55.682;37.564;2022-11-20T02:38:26;17.17;;;9.93;;
25083;SDS011;13075;55.682;37.564;2022-11-20T02:40:52;19.15;;;9.52;;
25083;SDS011;13075;55.682;37.564;2022-11-20T02:43:17;20.35;;;10.82;;
25083;SDS011;13075;55.682;37.564;2022-11-20T02:45:43;18.50;;;10.20;;
25083;SDS011;13075;55.682;37.564;2022-11-20T02:48:08;19.00;;;10.13;;
25083;SDS011;13075;55.682;37.564;2022-11-20T02:50:36;22.40;;;9.52;;
25083;SDS011;13075;55.682;37.564;2022-11-20T02:53:03;18.17;;;9.65;;
25083;SDS011;13075;55.682;37.564;2022-11-20T02:55:29;17.33;;;10.80;;
25083;SDS011;13075;55.682;37.564;2022-11-20T02:57:54;15.07;;;9.35;;
25083;SDS011;13075;55.682;37.564;2022-11-20T03:00:20;17.00;;;10.20;;
25083;SDS011;13075;55.682;37.564;2022-11-20T03:02:45;18.10;;;9.52;;
25083;SDS011;13075;55.682;37.564;2022-11-20T03:05:11;16.90;;;9.88;;
25083;SDS011;13075;55.682;37.564;2022-11-20T03:07:37;17.27;;;10.25;;
25083;SDS011;13075;55.682;37.564;2022-11-20T03:10:03;19.77;;;9.75;;
25083;SDS011;13075;55.682;37.564;2022-11-20T03:12:29;21.45;;;9.57;;
25083;SDS011;13075;55.682;37.564;2022-11-20T03:14:54;18.88;;;10.27;;
25083;SDS011;13075;55.682;37.564;2022-11-20T03:17:20;15.88;;;9.75;;
25083;SDS011;13075;55.682;37.564;2022-11-20T03:19:46;15.73;;;9.40;;
25083;SDS011;13075;55.682;37.564;2022-11-20T03:22:11;21.02;;;11.00;;
25083;SDS011;13075;55.682;37.564;2022-11-20T03:24:37;16.95;;;9.10;;
25083;SDS011;13075;55.682;37.564;2022-11-20T03:27:02;23.92;;;10.90;;
25083;SDS011;13075;55.682;37.564;2022-11-20T03:29:28;20.02;;;9.95;;
25083;SDS011;13075;55.682;37.564;2022-11-20T03:31:54;18.40;;;10.70;;
25083;SDS011;13075;55.682;37.564;2022-11-20T03:34:19;17.38;;;9.52;;
25083;SDS011;13075;55.682;37.564;2022-11-20T03:36:45;17.17;;;9.48;;
25083;SDS011;13075;55.682;37.564;2022-11-20T03:39:10;18.52;;;10.32;;
25083;SDS011;13075;55.682;37.564;2022-11-20T03:41:37;14.82;;;9.05;;
25083;SDS011;13075;55.682;37.564;2022-11-20T03:44:05;17.42;;;10.40;;
25083;SDS011;13075;55.682;37.564;2022-11-20T03:46:32;19.85;;;10.30;;
25083;SDS011;13075;55.682;37.564;2022-11-20T03:48:58;14.18;;;8.70;;
25083;SDS011;13075;55.682;37.564;2022-11-20T03:51:25;21.30;;;10.68;;
25083;SDS011;13075;55.682;37.564;2022-11-20T03:53:53;18.63;;;9.70;;
25083;SDS011;13075;55.682;37.564;2022-11-20T03:56:22;17.08;;;9.98;;
25083;SDS011;13075;55.682;37.564;2022-11-20T03:58:49;20.77;;;10.13;;
25083;SDS011;13075;55.682;37.564;2022-11-20T04:01:15;17.10;;;9.32;;
25083;SDS011;13075;55.682;37.564;2022-11-20T04:03:43;15.57;;;10.13;;
25083;SDS011;13075;55.682;37.564;2022-11-20T04:06:10;20.08;;;9.25;;
25083;SDS011;13075;55.682;37.564;2022-11-20T04:08:38;16.92;;;9.43;;
25083;SDS011;13075;55.682;37.564;2022-11-20T04:11:15;17.92;;;9.65;;
25083;SDS011;13075;55.682;37.564;2022-11-20T04:13:49;24.52;;;10.65;;
25083;SDS011;13075;55.682;37.564;2022-11-20T04:16:17;21.08;;;9.57;;
25083;SDS011;13075;55.682;37.564;2022-11-20T04:18:43;22.65;;;11.65;;
25083;SDS011;13075;55.682;37.564;2022-11-20T04:21:09;14.32;;;9.48;;
25083;SDS011;13075;55.682;37.564;2022-11-20T04:23:35;19.95;;;10.15;;
25083;SDS011;13075;55.682;37.564;2022-11-20T04:26:04;19.15;;;10.40;;
25083;SDS011;13075;55.682;37.564;2022-11-20T04:28:34;23.00;;;12.15;;
25083;SDS011;13075;55.682;37.564;2022-11-20T04:31:07;19.02;;;10.05;;
25083;SDS011;13075;55.682;37.564;2022-11-20T04:33:35;20.60;;;11.68;;
25083;SDS011;13075;55.682;37.564;2022-11-20T04:36:09;16.25;;;10.48;;
25083;SDS011;13075;55.682;37.564;2022-11-20T04:38:35;18.65;;;10.30;;
25083;SDS011;13075;55.682;37.564;2022-11-20T04:41:02;23.30;;;11.77;;
25083;SDS011;13075;55.682;37.564;2022-11-20T04:43:29;21.70;;;11.27;;
25083;SDS011;13075;55.682;37.564;2022-11-20T04:45:55;19.85;;;9.75;;
25083;SDS011;13075;55.682;37.564;2022-11-20T04:48:22;20.83;;;10.45;;
25083;SDS011;13075;55.682;37.564;2022-11-20T04:50:48;21.35;;;10.93;;
25083;SDS011;13075;55.682;37.564;2022-11-20T04:53:14;16.70;;;10.02;;
25083;SDS011;13075;55.682;37.564;2022-11-20T04:55:40;18.38;;;10.68;;
25083;SDS011;13075;55.682;37.564;2022-11-20T04:58:06;18.38;;;10.10;;
25083;SDS011;13075;55.682;37.564;2022-11-20T05:00:32;22.17;;;11.35;;
25083;SDS011;13075;55.682;37.564;2022-11-20T05:02:57;20.77;;;10.93;;
25083;SDS011;13075;55.682;37.564;2022-11-20T05:05:23;19.42;;;10.13;;
25083;SDS011;13075;55.682;37.564;2022-11-20T05:07:49;18.83;;;10.77;;
25083;SDS011;13075;55.682;37.564;2022-11-20T05:10:14;20.75;;;10.30;;
25083;SDS011;13075;55.682;37.564;2022-11-20T05:12:40;20.45;;;10.57;;
25083;SDS011;13075;55.682;37.564;2022-11-20T05:15:06;19.80;;;10.15;;
25083;SDS011;13075;55.682;37.564;2022-11-20T05:17:32;22.30;;;11.18;;
25083;SDS011;13075;55.682;37.564;2022-11-20T05:19:58;21.27;;;10.25;;
25083;SDS011;13075;55.682;37.564;2022-11-20T05:22:23;24.73;;;11.95;;
25083;SDS011;13075;55.682;37.564;2022-11-20T05:24:49;27.50;;;13.43;;
25083;SDS011;13075;55.682;37.564;2022-11-20T05:27:14;26.92;;;11.77;;
25083;SDS011;13075;55.682;37.564;2022-11-20T05:29:40;17.17;;;10.25;;
25083;SDS011;13075;55.682;37.564;2022-11-20T05:32:06;20.48;;;10.88;;
25083;SDS011;13075;55.682;37.564;2022-11-20T05:34:34;18.13;;;10.77;;
25083;SDS011;13075;55.682;37.564;2022-11-20T05:37:01;18.92;;;11.38;;
25083;SDS011;13075;55.682;37.564;2022-11-20T05:39:27;21.52;;;10.63;;
25083;SDS011;13075;55.682;37.564;2022-11-20T05:41:52;34.03;;;11.38;;
25083;SDS011;13075;55.682;37.564;2022-11-20T05:44:38;22.63;;;12.40;;
25083;SDS011;13075;55.682;37.564;2022-11-20T05:47:04;19.42;;;11.18;;
25083;SDS011;13075;55.682;37.564;2022-11-20T05:49:31;24.10;;;10.38;;
25083;SDS011;13075;55.682;37.564;2022-11-20T05:51:57;21.33;;;11.60;;
25083;SDS011;13075;55.682;37.564;2022-11-20T05:54:22;20.58;;;12.00;;
25083;SDS011;13075;55.682;37.564;2022-11-20T05:56:48;17.88;;;9.55;;
25083;SDS011;13075;55.682;37.564;2022-11-20T05:59:13;21.63;;;10.85;;
25083;SDS011;13075;55.682;37.564;2022-11-20T06:01:39;21.60;;;10.35;;
25083;SDS011;13075;55.682;37.564;2022-11-20T06:04:04;17.25;;;9.80;;
25083;SDS011;13075;55.682;37.564;2022-11-20T06:06:30;20.35;;;11.13;;
25083;SDS011;13075;55.682;37.564;2022-11-20T06:08:55;21.88;;;11.13;;
25083;SDS011;13075;55.682;37.564;2022-11-20T06:11:21;24.17;;;12.48;;
25083;SDS011;13075;55.682;37.564;2022-11-20T06:13:47;16.65;;;10.10;;
25083;SDS011;13075;55.682;37.564;2022-11-20T06:16:14;27.33;;;11.93;;
25083;SDS011;13075;55.682;37.564;2022-11-20T06:18:42;19.77;;;10.55;;
25083;SDS011;13075;55.682;37.564;2022-11-20T06:21:12;29.58;;;12.20;;
25083;SDS011;13075;55.682;37.564;2022-11-20T06:23:39;24.17;;;12.48;;
25083;SDS011;13075;55.682;37.564;2022-11-20T06:26:07;24.42;;;11.52;;
25083;SDS011;13075;55.682;37.564;2022-11-20T06:28:34;30.52;;;11.95;;
25083;SDS011;13075;55.682;37.564;2022-11-20T06:31:00;25.25;;;11.77;;
25083;SDS011;13075;55.682;37.564;2022-11-20T06:33:26;26.92;;;12.48;;
25083;SDS011;13075;55.682;37.564;2022-11-20T06:35:52;19.42;;;10.85;;
25083;SDS011;13075;55.682;37.564;2022-11-20T06:38:23;20.75;;;11.68;;
25083;SDS011;13075;55.682;37.564;2022-11-20T06:40:49;26.92;;;12.25;;
25083;SDS011;13075;55.682;37.564;2022-11-20T06:43:14;30.73;;;12.90;;
25083;SDS011;13075;55.682;37.564;2022-11-20T06:45:40;22.27;;;12.35;;
25083;SDS011;13075;55.682;37.564;2022-11-20T06:48:06;19.63;;;11.75;;
25083;SDS011;13075;55.682;37.564;2022-11-20T06:50:31;22.10;;;11.57;;
25083;SDS011;13075;55.682;37.564;2022-11-20T06:53:00;21.95;;;12.68;;
25083;SDS011;13075;55.682;37.564;2022-11-20T06:55:27;24.23;;;11.55;;
25083;SDS011;13075;55.682;37.564;2022-11-20T06:57:52;23.00;;;12.52;;
25083;SDS011;13075;55.682;37.564;2022-11-20T07:00:18;25.20;;;13.57;;
25083;SDS011;13075;55.682;37.564;2022-11-20T07:02:44;28.88;;;12.63;;
25083;SDS011;13075;55.682;37.564;2022-11-20T07:05:09;27.85;;;13.30;;
25083;SDS011;13075;55.682;37.564;2022-11-20T07:07:35;25.63;;;13.13;;
25083;SDS011;13075;55.682;37.564;2022-11-20T07:10:00;23.35;;;12.57;;
25083;SDS011;13075;55.682;37.564;2022-11-20T07:12:26;24.13;;;11.93;;
25083;SDS011;13075;55.682;37.564;2022-11-20T07:14:51;28.70;;;11.90;;
25083;SDS011;13075;55.682;37.564;2022-11-20T07:17:17;22.25;;;12.27;;
25083;SDS011;13075;55.682;37.564;2022-11-20T07:19:42;26.23;;;12.32;;
25083;SDS011;13075;55.682;37.564;2022-11-20T07:22:08;29.00;;;12.77;;
25083;SDS011;13075;55.682;37.564;2022-11-20T07:24:34;30.83;;;13.23;;
25083;SDS011;13075;55.682;37.564;2022-11-20T07:27:00;32.75;;;13.63;;
25083;SDS011;13075;55.682;37.564;2022-11-20T07:29:25;28.05;;;14.13;;
25083;SDS011;13075;55.682;37.564;2022-11-20T07:31:51;26.60;;;13.10;;
25083;SDS011;13075;55.682;37.564;2022-11-20T07:34:17;26.27;;;12.95;;
25083;SDS011;13075;55.682;37.564;2022-11-20T07:36:42;28.45;;;12.77;;
25083;SDS011;13075;55.682;37.564;2022-11-20T07:39:08;25.08;;;13.50;;
25083;SDS011;13075;55.682;37.564;2022-11-20T07:41:33;21.98;;;12.50;;
25083;SDS011;13075;55.682;37.564;2022-11-20T07:43:59;27.48;;;13.77;;
25083;SDS011;13075;55.682;37.564;2022-11-20T07:46:24;24.85;;;12.65;;
25083;SDS011;13075;55.682;37.564;2022-11-20T07:48:50;27.20;;;11.85;;
25083;SDS011;13075;55.682;37.564;2022-11-20T07:51:16;32.05;;;14.35;;
25083;SDS011;13075;55.682;37.564;2022-11-20T07:53:41;26.95;;;13.45;;
25083;SDS011;13075;55.682;37.564;2022-11-20T07:56:07;22.83;;;12.27;;
25083;SDS011;13075;55.682;37.564;2022-11-20T07:58:32;23.92;;;13.15;;
25083;SDS011;13075;55.682;37.564;2022-11-20T08:01:06;26.52;;;13.52;;
25083;SDS011;13075;55.682;37.564;2022-11-20T08:03:32;33.47;;;15.38;;
25083;SDS011;13075;55.682;37.564;2022-11-20T08:05:59;31.48;;;12.80;;
25083;SDS011;13075;55.682;37.564;2022-11-20T08:08:28;26.45;;;13.52;;
25083;SDS011;13075;55.682;37.564;2022-11-20T08:10:56;32.78;;;13.77;;
25083;SDS011;13075;55.682;37.564;2022-11-20T08:13:42;28.70;;;14.20;;
25083;SDS011;13075;55.682;37.564;2022-11-20T08:18:51;22.55;;;12.95;;
25083;SDS011;13075;55.682;37.564;2022-11-20T08:21:17;30.80;;;15.65;;
25083;SDS011;13075;55.682;37.564;2022-11-20T08:23:42;34.65;;;14.70;;
25083;SDS011;13075;55.682;37.564;2022-11-20T08:26:08;37.60;;;15.88;;
25083;SDS011;13075;55.682;37.564;2022-11-20T08:28:33;33.50;;;16.05;;
25083;SDS011;13075;55.682;37.564;2022-11-20T08:30:59;38.13;;;16.02;;
25083;SDS011;13075;55.682;37.564;2022-11-20T08:33:25;40.85;;;15.82;;
25083;SDS011;13075;55.682;37.564;2022-11-20T08:35:51;37.90;;;15.88;;
25083;SDS011;13075;55.682;37.564;2022-11-20T08:38:17;31.08;;;15.10;;
25083;SDS011;13075;55.682;37.564;2022-11-20T08:40:42;40.90;;;15.98;;
25083;SDS011;13075;55.682;37.564;2022-11-20T08:43:28;31.58;;;15.38;;
25083;SDS011;13075;55.682;37.564;2022-11-20T08:45:55;29.60;;;15.65;;
25083;SDS011;13075;55.682;37.564;2022-11-20T08:48:22;39.25;;;13.98;;
25083;SDS011;13075;55.682;37.564;2022-11-20T08:50:47;31.50;;;15.10;;
25083;SDS011;13075;55.682;37.564;2022-11-20T08:53:13;27.05;;;13.75;;
25083;SDS011;13075;55.682;37.564;2022-11-20T08:55:38;30.63;;;15.50;;
25083;SDS011;13075;55.682;37.564;2022-11-20T08:58:05;46.53;;;16.08;;
25083;SDS011;13075;55.682;37.564;2022-11-20T09:00:31;34.45;;;16.65;;
25083;SDS011;13075;55.682;37.564;2022-11-20T09:02:57;32.88;;;14.60;;
25083;SDS011;13075;55.682;37.564;2022-11-20T09:05:24;30.70;;;16.55;;
25083;SDS011;13075;55.682;37.564;2022-11-20T09:07:49;37.72;;;16.08;;
25083;SDS011;13075;55.682;37.564;2022-11-20T09:10:15;34.70;;;15.93;;
25083;SDS011;13075;55.682;37.564;2022-11-20T09:12:41;37.03;;;16.08;;
25083;SDS011;13075;55.682;37.564;2022-11-20T09:15:07;38.83;;;16.80;;
25083;SDS011;13075;55.682;37.564;2022-11-20T09:17:32;32.92;;;15.25;;
25083;SDS011;13075;55.682;37.564;2022-11-20T09:19:58;39.17;;;16.50;;
25083;SDS011;13075;55.682;37.564;2022-11-20T09:22:24;44.08;;;17.30;;
25083;SDS011;13075;55.682;37.564;2022-11-20T09:24:49;37.70;;;16.90;;
25083;SDS011;13075;55.682;37.564;2022-11-20T09:27:15;35.70;;;15.50;;
25083;SDS011;13075;55.682;37.564;2022-11-20T09:29:45;39.72;;;17.02;;
25083;SDS011;13075;55.682;37.564;2022-11-20T09:32:11;45.58;;;17.67;;
25083;SDS011;13075;55.682;37.564;2022-11-20T09:34:36;59.45;;;20.83;;
25083;SDS011;13075;55.682;37.564;2022-11-20T09:37:02;39.22;;;17.70;;
25083;SDS011;13075;55.682;37.564;2022-11-20T09:39:28;44.42;;;17.33;;
25083;SDS011;13075;55.682;37.564;2022-11-20T09:44:48;38.47;;;17.30;;
25083;SDS011;13075;55.682;37.564;2022-11-20T09:47:37;43.22;;;18.52;;
25083;SDS011;13075;55.682;37.564;2022-11-20T09:55:36;41.35;;;20.27;;
25083;SDS011;13075;55.682;37.564;2022-11-20T09:58:05;44.75;;;19.27;;
25083;SDS011;13075;55.682;37.564;2022-11-20T10:00:33;40.67;;;17.75;;
25083;SDS011;13075;55.682;37.564;2022-11-20T10:10:41;39.60;;;16.85;;
25083;SDS011;13075;55.682;37.564;2022-11-20T10:16:23;45.47;;;17.30;;
25083;SDS011;13075;55.682;37.564;2022-11-20T10:21:58;40.50;;;18.70;;
25083;SDS011;13075;55.682;37.564;2022-11-20T10:24:43;34.35;;;16.33;;
25083;SDS011;13075;55.682;37.564;2022-11-20T10:30:36;37.50;;;15.85;;
25083;SDS011;13075;55.682;37.564;2022-11-20T10:33:16;42.95;;;18.38;;
25083;SDS011;13075;55.682;37.564;2022-11-20T10:36:00;43.00;;;18.13;;
25083;SDS011;13075;55.682;37.564;2022-11-20T10:41:14;43.83;;;19.42;;
25083;SDS011;13075;55.682;37.564;2022-11-20T10:44:01;38.78;;;17.23;;
25083;SDS011;13075;55.682;37.564;2022-11-20T10:46:35;39.90;;;17.05;;
25083;SDS011;13075;55.682;37.564;2022-11-20T10:49:15;29.13;;;13.88;;
25083;SDS011;13075;55.682;37.564;2022-11-20T10:51:47;33.45;;;16.20;;
25083;SDS011;13075;55.682;37.564;2022-11-20T10:56:53;33.35;;;14.70;;
25083;SDS011;13075;55.682;37.564;2022-11-20T11:02:24;47.47;;;16.42;;
25083;SDS011;13075;55.682;37.564;2022-11-20T11:05:08;29.90;;;13.80;;
25083;SDS011;13075;55.682;37.564;2022-11-20T11:07:41;29.48;;;15.05;;
25083;SDS011;13075;55.682;37.564;2022-11-20T11:10:15;33.70;;;13.93;;
25083;SDS011;13075;55.682;37.564;2022-11-20T11:12:45;31.00;;;15.07;;
25083;SDS011;13075;55.682;37.564;2022-11-20T11:15:14;25.65;;;13.45;;
25083;SDS011;13075;55.682;37.564;2022-11-20T11:18:00;30.95;;;14.73;;
25083;SDS011;13075;55.682;37.564;2022-11-20T11:20:26;26.83;;;15.10;;
25083;SDS011;13075;55.682;37.564;2022-11-20T11:22:53;25.90;;;13.63;;
25083;SDS011;13075;55.682;37.564;2022-11-20T11:27:52;29.27;;;14.30;;
25083;SDS011;13075;55.682;37.564;2022-11-20T11:30:19;25.73;;;13.20;;
25083;SDS011;13075;55.682;37.564;2022-11-20T11:32:45;22.92;;;13.00;;
25083;SDS011;13075;55.682;37.564;2022-11-20T11:37:45;24.17;;;13.32;;
25083;SDS011;13075;55.682;37.564;2022-11-20T11:40:13;20.88;;;12.40;;
25083;SDS011;13075;55.682;37.564;2022-11-20T11:42:59;25.08;;;12.48;;
25083;SDS011;13075;55.682;37.564;2022-11-20T11:45:27;27.30;;;11.98;;
25083;SDS011;13075;55.682;37.564;2022-11-20T11:47:54;22.23;;;12.43;;
25083;SDS011;13075;55.682;37.564;2022-11-20T11:50:26;27.38;;;12.38;;
25083;SDS011;13075;55.682;37.564;2022-11-20T12:01:03;21.90;;;12.65;;
25083;SDS011;13075;55.682;37.564;2022-11-20T12:03:38;19.80;;;10.93;;
25083;SDS011;13075;55.682;37.564;2022-11-20T12:06:10;19.75;;;11.82;;
25083;SDS011;13075;55.682;37.564;2022-11-20T12:11:20;23.83;;;11.45;;
25083;SDS011;13075;55.682;37.564;2022-11-20T12:14:00;27.92;;;13.30;;
25083;SDS011;13075;55.682;37.564;2022-11-20T12:16:34;21.25;;;11.43;;
25083;SDS011;13075;55.682;37.564;2022-11-20T12:19:02;23.05;;;12.73;;
25083;SDS011;13075;55.682;37.564;2022-11-20T12:30:00;21.27;;;11.57;;
25083;SDS011;13075;55.682;37.564;2022-11-20T12:38:26;23.63;;;12.40;;
25083;SDS011;13075;55.682;37.564;2022-11-20T12:43:42;22.00;;;13.75;;
25083;SDS011;13075;55.682;37.564;2022-11-20T12:46:48;23.25;;;12.50;;
25083;SDS011;13075;55.682;37.564;2022-11-20T12:49:44;25.27;;;13.32;;
25083;SDS011;13075;55.682;37.564;2022-11-20T12:52:27;23.92;;;12.40;;
25083;SDS011;13075;55.682;37.564;2022-11-20T12:55:15;22.35;;;11.52;;
25083;SDS011;13075;55.682;37.564;2022-11-20T13:00:43;30.02;;;13.23;;
25083;SDS011;13075;55.682;37.564;2022-11-20T13:03:26;28.65;;;12.15;;
25083;SDS011;13075;55.682;37.564;2022-11-20T13:08:39;23.63;;;12.70;;
25083;SDS011;13075;55.682;37.564;2022-11-20T13:16:41;23.17;;;12.85;;
25083;SDS011;13075;55.682;37.564;2022-11-20T13:19:11;23.70;;;12.73;;
25083;SDS011;13075;55.682;37.564;2022-11-20T13:21:43;21.65;;;11.00;;
25083;SDS011;13075;55.682;37.564;2022-11-20T13:27:05;20.48;;;11.10;;
25083;SDS011;13075;55.682;37.564;2022-11-20T13:35:34;22.50;;;12.57;;
25083;SDS011;13075;55.682;37.564;2022-11-20T13:38:04;28.35;;;12.32;;
25083;SDS011;13075;55.682;37.564;2022-11-20T13:40:33;17.52;;;10.35;;
25083;SDS011;13075;55.682;37.564;2022-11-20T13:45:57;20.77;;;11.20;;
25083;SDS011;13075;55.682;37.564;2022-11-20T13:48:34;19.20;;;10.68;;
25083;SDS011;13075;55.682;37.564;2022-11-20T13:59:53;20.25;;;9.00;;
25083;SDS011;13075;55.682;37.564;2022-11-20T14:02:23;22.73;;;10.88;;
25083;SDS011;13075;55.682;37.564;2022-11-20T14:04:53;25.35;;;12.45;;
25083;SDS011;13075;55.682;37.564;2022-11-20T14:07:23;21.75;;;12.02;;
25083;SDS011;13075;55.682;37.564;2022-11-20T14:09:55;24.25;;;12.30;;
25083;SDS011;13075;55.682;37.564;2022-11-20T14:12:23;20.60;;;10.95;;
25083;SDS011;13075;55.682;37.564;2022-11-20T14:14:58;23.27;;;12.60;;
25083;SDS011;13075;55.682;37.564;2022-11-20T14:19:53;23.83;;;13.40;;
25083;SDS011;13075;55.682;37.564;2022-11-20T14:22:25;22.23;;;11.73;;
25083;SDS011;13075;55.682;37.564;2022-11-20T14:27:55;22.77;;;12.13;;
25083;SDS011;13075;55.682;37.564;2022-11-20T14:30:46;22.08;;;12.63;;
25083;SDS011;13075;55.682;37.564;2022-11-20T14:33:13;22.42;;;12.05;;
25083;SDS011;13075;55.682;37.564;2022-11-20T14:35:43;20.80;;;12.30;;
25083;SDS011;13075;55.682;37.564;2022-11-20T14:38:14;23.02;;;12.55;;
25083;SDS011;13075;55.682;37.564;2022-11-20T14:40:43;25.57;;;13.03;;
25083;SDS011;13075;55.682;37.564;2022-11-20T14:43:23;23.02;;;12.38;;
25083;SDS011;13075;55.682;37.564;2022-11-20T14:45:54;24.50;;;12.40;;
25083;SDS011;13075;55.682;37.564;2022-11-20T14:48:23;24.77;;;12.43;;
25083;SDS011;13075;55.682;37.564;2022-11-20T14:50:55;24.58;;;13.70;;
25083;SDS011;13075;55.682;37.564;2022-11-20T14:53:24;25.98;;;13.30;;
25083;SDS011;13075;55.682;37.564;2022-11-20T14:56:00;22.65;;;12.63;;
25083;SDS011;13075;55.682;37.564;2022-11-20T14:58:30;19.48;;;11.70;;
25083;SDS011;13075;55.682;37.564;2022-11-20T15:03:30;24.17;;;14.48;;
25083;SDS011;13075;55.682;37.564;2022-11-20T15:08:23;23.48;;;12.98;;
25083;SDS011;13075;55.682;37.564;2022-11-20T15:10:49;22.50;;;12.20;;
25083;SDS011;13075;55.682;37.564;2022-11-20T15:13:18;24.33;;;12.70;;
25083;SDS011;13075;55.682;37.564;2022-11-20T15:15:51;28.75;;;13.05;;
25083;SDS011;13075;55.682;37.564;2022-11-20T15:18:23;23.92;;;12.13;;
25083;SDS011;13075;55.682;37.564;2022-11-20T15:20:57;26.40;;;13.65;;
25083;SDS011;13075;55.682;37.564;2022-11-20T15:23:26;21.73;;;12.05;;
25083;SDS011;13075;55.682;37.564;2022-11-20T15:25:52;33.72;;;14.52;;
25083;SDS011;13075;55.682;37.564;2022-11-20T15:28:19;25.45;;;13.27;;
25083;SDS011;13075;55.682;37.564;2022-11-20T15:30:52;40.00;;;18.73;;
25083;SDS011;13075;55.682;37.564;2022-11-20T15:33:18;23.48;;;13.95;;
25083;SDS011;13075;55.682;37.564;2022-11-20T15:35:43;26.20;;;13.93;;
25083;SDS011;13075;55.682;37.564;2022-11-20T15:38:09;23.65;;;12.65;;
25083;SDS011;13075;55.682;37.564;2022-11-20T15:40:35;27.95;;;12.50;;
25083;SDS011;13075;55.682;37.564;2022-11-20T15:43:01;26.52;;;13.45;;
25083;SDS011;13075;55.682;37.564;2022-11-20T15:45:33;27.25;;;13.15;;
25083;SDS011;13075;55.682;37.564;2022-11-20T15:48:05;21.10;;;11.85;;
25083;SDS011;13075;55.682;37.564;2022-11-20T15:50:37;25.75;;;13.38;;
25083;SDS011;13075;55.682;37.564;2022-11-20T15:53:24;27.92;;;12.20;;
25083;SDS011;13075;55.682;37.564;2022-11-20T15:55:50;23.23;;;13.32;;
25083;SDS011;13075;55.682;37.564;2022-11-20T15:58:15;19.92;;;12.23;;
25083;SDS011;13075;55.682;37.564;2022-11-20T16:00:42;20.70;;;11.88;;
25083;SDS011;13075;55.682;37.564;2022-11-20T16:03:12;27.77;;;15.10;;
25083;SDS011;13075;55.682;37.564;2022-11-20T16:05:38;24.08;;;13.25;;
25083;SDS011;13075;55.682;37.564;2022-11-20T16:08:04;30.23;;;14.48;;
25083;SDS011;13075;55.682;37.564;2022-11-20T16:10:30;23.58;;;11.25;;
25083;SDS011;13075;55.682;37.564;2022-11-20T16:12:56;21.70;;;11.70;;
25083;SDS011;13075;55.682;37.564;2022-11-20T16:15:40;29.60;;;14.40;;
25083;SDS011;13075;55.682;37.564;2022-11-20T16:18:16;23.42;;;12.38;;
25083;SDS011;13075;55.682;37.564;2022-11-20T16:20:44;25.17;;;12.27;;
25083;SDS011;13075;55.682;37.564;2022-11-20T16:23:11;26.42;;;13.25;;
25083;SDS011;13075;55.682;37.564;2022-11-20T16:25:37;24.02;;;12.40;;